| time (UTC) | temp C | wind direction | speed KPH | gust KPH | rain 1hr cm | rain 24hr cm | rain mn cm | humidity % | barometer mb |
| 20260906211559 | 28 | 159 | 12.9 | 27.4 | 0.00 | 0.00 | 0.00 | 39 | 1016.5 |
| 20260906210055 | 28 | 161 | 14.5 | 32.2 | 0.00 | 0.00 | 0.00 | 39 | 1016.6 |
| 20260906204604 | 28 | 172 | 11.3 | 27.4 | 0.00 | 0.00 | 0.00 | 39 | 1017.0 |
| 20260906203057 | 28 | 165 | 16.1 | 27.4 | 0.00 | 0.00 | 0.00 | 40 | 1017.3 |
| 20260906201553 | 28 | 155 | 14.5 | 27.4 | 0.00 | 0.00 | 0.00 | 41 | 1017.5 |
| 20260906200103 | 28 | 122 | 8.0 | 24.1 | 0.00 | 0.00 | 0.00 | 43 | 1017.6 |
| 20260906194553 | 27 | 142 | 11.3 | 19.3 | 0.00 | 0.00 | 0.00 | 44 | 1017.6 |
| 20260906193102 | 27 | 155 | 9.7 | 24.1 | 0.00 | 0.00 | 0.00 | 45 | 1017.6 |
| 20260906191600 | 27 | 169 | 9.7 | 22.5 | 0.00 | 0.00 | 0.00 | 47 | 1017.9 |
| 20260906190113 | 26 | 143 | 16.1 | 27.4 | 0.00 | 0.00 | 0.00 | 44 | 1017.8 |
| 20260906184555 | 26 | 150 | 9.7 | 22.5 | 0.00 | 0.00 | 0.00 | 47 | 1017.9 |
| 20260906183055 | 26 | 129 | 8.0 | 19.3 | 0.00 | 0.00 | 0.00 | 46 | 1017.9 |
| 20260906181549 | 26 | 94 | 9.7 | 16.1 | 0.00 | 0.00 | 0.00 | 48 | 1018.1 |
| 20260906180056 | 25 | 142 | 12.9 | 20.9 | 0.00 | 0.00 | 0.00 | 49 | 1018.4 |
| 20260906174552 | 25 | 180 | 11.3 | 27.4 | 0.00 | 0.00 | 0.00 | 50 | 1018.7 |
| 20260906173047 | 24 | 148 | 9.7 | 20.9 | 0.00 | 0.00 | 0.00 | 52 | 1019.0 |
| 20260906171600 | 23 | 157 | 12.9 | 24.1 | 0.00 | 0.00 | 0.00 | 53 | 1019.2 |
| 20260906170057 | 23 | 153 | 11.3 | 25.7 | 0.00 | 0.00 | 0.00 | 54 | 1019.2 |
| 20260906164551 | 23 | 141 | 9.7 | 19.3 | 0.00 | 0.00 | 0.00 | 54 | 1019.4 |
| 20260906163102 | 22 | 148 | 14.5 | 25.7 | 0.00 | 0.00 | 0.00 | 56 | 1019.3 |
| 20260906161558 | 22 | 165 | 16.1 | 25.7 | 0.00 | 0.00 | 0.00 | 56 | 1019.4 |
| 20260906160108 | 21 | 140 | 14.5 | 35.4 | 0.00 | 0.00 | 0.00 | 57 | 1019.5 |
| 20260906154558 | 21 | 161 | 22.5 | 35.4 | 0.00 | 0.00 | 0.00 | 60 | 1019.5 |
| 20260906153048 | 20 | 164 | 19.3 | 27.4 | 0.00 | 0.00 | 0.00 | 62 | 1019.6 |
| 20260906151559 | 20 | 148 | 16.1 | 22.5 | 0.00 | 0.00 | 0.00 | 62 | 1019.8 |
| 20260906150059 | 20 | 155 | 11.3 | 20.9 | 0.00 | 0.00 | 0.00 | 64 | 1019.8 |
| 20260906144547 | 19 | 130 | 12.9 | 20.9 | 0.00 | 0.00 | 0.00 | 67 | 1019.9 |
| 20260906143046 | 18 | 131 | 14.5 | 22.5 | 0.00 | 0.00 | 0.00 | 69 | 1019.8 |
| 20260906141558 | 18 | 144 | 12.9 | 22.5 | 0.00 | 0.00 | 0.00 | 70 | 1019.6 |
| 20260906140052 | 17 | 151 | 16.1 | 22.5 | 0.00 | 0.00 | 0.00 | 71 | 1019.7 |
| 20260906134601 | 17 | 136 | 14.5 | 25.7 | 0.00 | 0.00 | 0.00 | 72 | 1019.6 |
| 20260906133110 | 17 | 142 | 14.5 | 20.9 | 0.00 | 0.00 | 0.00 | 71 | 1019.4 |
| 20260906131546 | 17 | 142 | 12.9 | 19.3 | 0.00 | 0.00 | 0.00 | 71 | 1019.7 |
| 20260906130048 | 17 | 148 | 14.5 | 19.3 | 0.00 | 0.00 | 0.00 | 72 | 1019.5 |
| 20260906124557 | 17 | 142 | 12.9 | 19.3 | 0.00 | 0.00 | 0.00 | 71 | 1019.3 |
| 20260906123103 | 17 | 151 | 16.1 | 22.5 | 0.00 | 0.00 | 0.00 | 72 | 1019.2 |
| 20260906121548 | 17 | 107 | 12.9 | 17.7 | 0.00 | 0.00 | 0.00 | 73 | 1019.3 |
| 20260906114606 | 17 | 151 | 8.0 | 12.9 | 0.00 | 0.00 | 0.00 | 74 | 1019.4 |
| 20260906113054 | 17 | 141 | 9.7 | 14.5 | 0.00 | 0.00 | 0.00 | 74 | 1019.4 |
| 20260906111554 | 17 | 152 | 11.3 | 17.7 | 0.00 | 0.00 | 0.00 | 73 | 1019.6 |
| 20260906104625 | 17 | 149 | 11.3 | 17.7 | 0.00 | 0.00 | 0.00 | 73 | 1019.6 |
| 20260906103051 | 18 | 135 | 12.9 | 17.7 | 0.00 | 0.00 | 0.00 | 72 | 1019.7 |
| 20260906101547 | 18 | 95 | 9.7 | 16.1 | 0.00 | 0.00 | 0.00 | 72 | 1019.5 |
| 20260906100058 | 17 | 124 | 9.7 | 17.7 | 0.00 | 0.00 | 0.00 | 72 | 1019.3 |
| 20260906094555 | 17 | 129 | 9.7 | 16.1 | 0.00 | 0.00 | 0.00 | 74 | 1019.3 |
| 20260906093108 | 17 | 89 | 9.7 | 12.9 | 0.00 | 0.00 | 0.00 | 74 | 1019.4 |
| 20260906091548 | 17 | 113 | 6.4 | 14.5 | 0.00 | 0.00 | 0.00 | 74 | 1019.3 |
| 20260906090055 | 17 | 106 | 9.7 | 12.9 | 0.00 | 0.00 | 0.00 | 74 | 1019.5 |
| 20260906084548 | 17 | 123 | 6.4 | 14.5 | 0.00 | 0.00 | 0.00 | 74 | 1019.5 |
| 20260906083052 | 18 | 153 | 11.3 | 17.7 | 0.00 | 0.00 | 0.00 | 74 | 1019.6 |
| 20260906081549 | 18 | 156 | 8.0 | 14.5 | 0.00 | 0.00 | 0.00 | 73 | 1020.0 |
| 20260906080046 | 18 | 152 | 12.9 | 20.9 | 0.00 | 0.00 | 0.00 | 73 | 1019.6 |
| 20260906074554 | 18 | 155 | 14.5 | 24.1 | 0.00 | 0.00 | 0.00 | 72 | 1019.4 |
| 20260906073051 | 19 | 137 | 14.5 | 25.7 | 0.00 | 0.00 | 0.00 | 70 | 1019.4 |
| 20260906071547 | 19 | 136 | 17.7 | 24.1 | 0.00 | 0.00 | 0.00 | 70 | 1019.2 |
| 20260906070101 | 20 | 120 | 16.1 | 24.1 | 0.00 | 0.00 | 0.00 | 68 | 1019.0 |
| 20260906064553 | 20 | 153 | 14.5 | 20.9 | 0.00 | 0.00 | 0.00 | 68 | 1018.9 |
| 20260906063049 | 20 | 140 | 12.9 | 19.3 | 0.00 | 0.00 | 0.00 | 68 | 1019.1 |
| 20260906061551 | 20 | 130 | 9.7 | 20.9 | 0.00 | 0.00 | 0.00 | 68 | 1018.9 |
| 20260906060101 | 20 | 140 | 14.5 | 24.1 | 0.00 | 0.00 | 0.00 | 67 | 1018.8 |
| 20260906054604 | 20 | 134 | 20.9 | 29.0 | 0.00 | 0.00 | 0.00 | 66 | 1018.7 |
| 20260906053053 | 20 | 138 | 20.9 | 35.4 | 0.00 | 0.00 | 0.00 | 66 | 1018.8 |
| 20260906051547 | 20 | 134 | 22.5 | 37.0 | 0.00 | 0.00 | 0.00 | 66 | 1019.0 |
| 20260906050120 | 21 | 146 | 22.5 | 40.2 | 0.00 | 0.00 | 0.00 | 65 | 1019.2 |
| 20260906044552 | 21 | 98 | 29.0 | 43.5 | 0.00 | 0.00 | 0.00 | 63 | 1019.2 |
| 20260906043047 | 22 | 121 | 27.4 | 37.0 | 0.00 | 0.00 | 0.00 | 61 | 1019.2 |
| 20260906041600 | 22 | 149 | 19.3 | 25.7 | 0.00 | 0.00 | 0.00 | 60 | 1019.2 |
| 20260906040113 | 22 | 122 | 16.1 | 24.1 | 0.00 | 0.00 | 0.00 | 57 | 1019.2 |
| 20260906034551 | 22 | 92 | 17.7 | 30.6 | 0.00 | 0.00 | 0.00 | 55 | 1019.2 |
| 20260906033102 | 22 | 88 | 20.9 | 32.2 | 0.00 | 0.00 | 0.00 | 52 | 1019.0 |
| 20260906031547 | 22 | 117 | 22.5 | 30.6 | 0.00 | 0.00 | 0.00 | 49 | 1019.2 |
| 20260906030055 | 22 | 94 | 24.1 | 33.8 | 0.00 | 0.00 | 0.00 | 47 | 1019.1 |
| 20260906024602 | 22 | 78 | 19.3 | 30.6 | 0.00 | 0.00 | 0.00 | 45 | 1019.1 |
| 20260906023047 | 23 | 98 | 20.9 | 33.8 | 0.00 | 0.00 | 0.00 | 44 | 1018.9 |
| 20260906021552 | 23 | 115 | 16.1 | 30.6 | 0.00 | 0.00 | 0.00 | 44 | 1018.7 |
| 20260906020059 | 23 | 94 | 17.7 | 30.6 | 0.00 | 0.00 | 0.00 | 44 | 1018.7 |
| 20260906014557 | 23 | 72 | 17.7 | 25.7 | 0.00 | 0.00 | 0.00 | 43 | 1018.6 |
| 20260906013049 | 24 | 76 | 19.3 | 33.8 | 0.00 | 0.00 | 0.00 | 41 | 1018.7 |
| 20260906011602 | 24 | 84 | 22.5 | 33.8 | 0.00 | 0.00 | 0.00 | 40 | 1018.5 |
| 20260906010050 | 25 | 90 | 17.7 | 37.0 | 0.00 | 0.00 | 0.00 | 38 | 1018.8 |
| 20260906004557 | 25 | 102 | 24.1 | 33.8 | 0.00 | 0.00 | 0.00 | 37 | 1018.5 |
| 20260906003050 | 26 | 100 | 20.9 | 38.6 | 0.00 | 0.00 | 0.00 | 35 | 1018.6 |
| 20260906001548 | 26 | 82 | 19.3 | 25.7 | 0.00 | 0.00 | 0.00 | 34 | 1018.6 |
| 20260906000048 | 27 | 142 | 6.4 | 17.7 | 0.00 | 0.00 | 0.00 | 31 | 1018.9 |
| 20260905234610 | 27 | 150 | 16.1 | 22.5 | 0.00 | 0.00 | 0.00 | 30 | 1018.3 |
| 20260905233050 | 28 | 169 | 8.0 | 16.1 | 0.00 | 0.00 | 0.00 | 29 | 1018.5 |
| 20260905231555 | 29 | 213 | 1.6 | 9.7 | 0.00 | 0.00 | 0.00 | 29 | 1018.7 |
| 20260905230129 | 28 | 187 | 4.8 | 11.3 | 0.00 | 0.00 | 0.00 | 29 | 1018.8 |
| 20260905224552 | 28 | 0 | 0.0 | 8.0 | 0.00 | 0.00 | 0.00 | 33 | 1018.7 |
| 20260905223104 | 28 | 274 | 1.6 | 8.0 | 0.00 | 0.00 | 0.00 | 31 | 1018.7 |
| 20260905221547 | 28 | 186 | 3.2 | 11.3 | 0.00 | 0.00 | 0.00 | 28 | 1018.5 |
| 20260905214554 | 28 | 0 | 1.6 | 6.4 | 0.00 | 0.00 | 0.00 | 29 | 1018.8 |
| 20260905213049 | 28 | 0 | 3.2 | 9.7 | 0.00 | 0.00 | 0.00 | 32 | 1018.9 |